DAL6IN EBBR-EDDF
Flight info
| Callsign | DAL6IN |
|---|---|
| Flight time | 0h 43m |
| Altitude | 23000 |
| Route | SPI T180 NIVNU T847 IMCOM IMCOM1A |
| Aircraft | A359/H-SDE2E3GHIJ3J4J5LM1ORWXY/LB1D1 |
Departure
| Time | 2026-05-06 18:42 |
|---|---|
| Airport | Brussels Airport (EBBR) |
Arrival
| Time | 2026-05-06 19:25 |
|---|---|
| Airport | Frankfurt Main Airport (EDDF) |
| Time | Latitude | Longitude | Altitude | Speed | Heading |
|---|---|---|---|---|---|
| 2026-05-06 18:04 | 50.90543 | 4.49033 | 123 ft | 0 kts | 189° |
| 2026-05-06 18:32 | 50.90547 | 4.49034 | 127 ft | 2 kts | 189° |
| 2026-05-06 18:32 | 50.90563 | 4.49038 | 108 ft | 2 kts | 189° |
| 2026-05-06 18:32 | 50.90578 | 4.49042 | 107 ft | 2 kts | 189° |
| 2026-05-06 18:33 | 50.90594 | 4.49047 | 126 ft | 3 kts | 180° |
| 2026-05-06 18:33 | 50.90612 | 4.49042 | 122 ft | 3 kts | 142° |
| 2026-05-06 18:33 | 50.90624 | 4.49021 | 122 ft | 3 kts | 104° |
| 2026-05-06 18:33 | 50.90625 | 4.48993 | 123 ft | 1 kts | 66° |
| 2026-05-06 18:35 | 50.90630 | 4.49011 | 122 ft | 6 kts | 67° |
| 2026-05-06 18:35 | 50.90643 | 4.49086 | 124 ft | 8 kts | 87° |
| 2026-05-06 18:35 | 50.90614 | 4.49154 | 123 ft | 8 kts | 148° |
| 2026-05-06 18:35 | 50.90563 | 4.49195 | 126 ft | 9 kts | 155° |
| 2026-05-06 18:36 | 50.90491 | 4.49247 | 127 ft | 14 kts | 155° |
| 2026-05-06 18:36 | 50.90396 | 4.49316 | 125 ft | 16 kts | 155° |
| 2026-05-06 18:36 | 50.90291 | 4.49399 | 123 ft | 17 kts | 174° |
| 2026-05-06 18:36 | 50.90174 | 4.49360 | 135 ft | 18 kts | 195° |
| 2026-05-06 18:37 | 50.90048 | 4.49309 | 137 ft | 20 kts | 193° |
| 2026-05-06 18:37 | 50.89915 | 4.49254 | 143 ft | 19 kts | 194° |
| 2026-05-06 18:37 | 50.89791 | 4.49204 | 150 ft | 18 kts | 194° |
| 2026-05-06 18:37 | 50.89673 | 4.49156 | 158 ft | 17 kts | 194° |
| 2026-05-06 18:38 | 50.89655 | 4.49148 | 158 ft | 0 kts | 193° |
| 2026-05-06 18:38 | 50.89637 | 4.49130 | 159 ft | 10 kts | 217° |
| 2026-05-06 18:38 | 50.89526 | 4.49049 | 163 ft | 21 kts | 195° |
| 2026-05-06 18:38 | 50.89380 | 4.48991 | 168 ft | 22 kts | 194° |
| 2026-05-06 18:39 | 50.89289 | 4.48871 | 171 ft | 18 kts | 248° |
| 2026-05-06 18:39 | 50.89240 | 4.48658 | 170 ft | 22 kts | 250° |
| 2026-05-06 18:39 | 50.89183 | 4.48409 | 170 ft | 25 kts | 249° |
| 2026-05-06 18:40 | 50.89072 | 4.47949 | 170 ft | 0 kts | 236° |
| 2026-05-06 18:40 | 50.89072 | 4.47948 | 171 ft | 1 kts | 236° |
| 2026-05-06 18:40 | 50.89010 | 4.47907 | 176 ft | 13 kts | 174° |
| 2026-05-06 18:40 | 50.88945 | 4.47993 | 191 ft | 14 kts | 111° |
| 2026-05-06 18:41 | 50.88937 | 4.48174 | 184 ft | 20 kts | 76° |
| 2026-05-06 18:41 | 50.89017 | 4.48529 | 192 ft | 65 kts | 70° |
| 2026-05-06 18:41 | 50.89258 | 4.49575 | 183 ft | 134 kts | 70° |
| 2026-05-06 18:41 | 50.89626 | 4.51184 | 571 ft | 160 kts | 68° |
| 2026-05-06 18:42 | 50.90029 | 4.52800 | 1504 ft | 157 kts | 62° |
| 2026-05-06 18:42 | 50.90562 | 4.54455 | 1965 ft | 183 kts | 62° |
| 2026-05-06 18:42 | 50.91191 | 4.56374 | 2421 ft | 207 kts | 62° |
| 2026-05-06 18:42 | 50.91903 | 4.58562 | 2828 ft | 236 kts | 62° |
| 2026-05-06 18:43 | 50.92671 | 4.60945 | 3560 ft | 247 kts | 62° |
| 2026-05-06 18:43 | 50.93445 | 4.63396 | 4432 ft | 253 kts | 63° |
| 2026-05-06 18:43 | 50.94073 | 4.66062 | 5303 ft | 260 kts | 70° |
| 2026-05-06 18:43 | 50.94507 | 4.68886 | 6131 ft | 269 kts | 84° |
| 2026-05-06 18:44 | 50.94212 | 4.71833 | 7043 ft | 276 kts | 110° |
| 2026-05-06 18:44 | 50.93379 | 4.74559 | 7975 ft | 281 kts | 116° |
| 2026-05-06 18:44 | 50.92414 | 4.77339 | 8948 ft | 287 kts | 117° |
| 2026-05-06 18:44 | 50.91459 | 4.80086 | 9920 ft | 291 kts | 118° |
| 2026-05-06 18:45 | 50.90466 | 4.82963 | 10541 ft | 308 kts | 117° |
| 2026-05-06 18:45 | 50.89409 | 4.86083 | 10914 ft | 333 kts | 117° |
| 2026-05-06 18:45 | 50.88298 | 4.89443 | 11346 ft | 354 kts | 116° |
| 2026-05-06 18:45 | 50.87156 | 4.92922 | 11969 ft | 366 kts | 116° |
| 2026-05-06 18:46 | 50.85956 | 4.96574 | 12866 ft | 371 kts | 117° |
| 2026-05-06 18:46 | 50.84758 | 5.00210 | 13698 ft | 377 kts | 117° |
| 2026-05-06 18:46 | 50.83531 | 5.03914 | 14449 ft | 382 kts | 117° |
| 2026-05-06 18:46 | 50.82284 | 5.07663 | 15246 ft | 386 kts | 117° |
| 2026-05-06 18:47 | 50.81024 | 5.11445 | 16010 ft | 391 kts | 117° |
| 2026-05-06 18:47 | 50.79748 | 5.15267 | 16825 ft | 394 kts | 118° |
| 2026-05-06 18:47 | 50.78462 | 5.19111 | 17626 ft | 397 kts | 118° |
| 2026-05-06 18:47 | 50.77163 | 5.22990 | 18417 ft | 402 kts | 118° |
| 2026-05-06 18:48 | 50.75848 | 5.26908 | 19141 ft | 406 kts | 118° |
| 2026-05-06 18:48 | 50.74513 | 5.30884 | 19828 ft | 411 kts | 118° |
| 2026-05-06 18:48 | 50.73167 | 5.34884 | 20588 ft | 415 kts | 118° |
| 2026-05-06 18:48 | 50.71810 | 5.38912 | 21384 ft | 416 kts | 118° |
| 2026-05-06 18:49 | 50.70442 | 5.42965 | 22072 ft | 422 kts | 118° |
| 2026-05-06 18:49 | 50.69053 | 5.47076 | 22655 ft | 427 kts | 118° |
| 2026-05-06 18:49 | 50.67654 | 5.51207 | 22891 ft | 431 kts | 118° |
| 2026-05-06 18:49 | 50.66221 | 5.55431 | 22911 ft | 451 kts | 118° |
| 2026-05-06 18:50 | 50.64721 | 5.59846 | 22910 ft | 460 kts | 118° |
| 2026-05-06 18:50 | 50.63213 | 5.64278 | 22898 ft | 459 kts | 118° |
| 2026-05-06 18:50 | 50.61705 | 5.68704 | 22896 ft | 457 kts | 118° |
| 2026-05-06 18:50 | 50.60203 | 5.73103 | 22892 ft | 456 kts | 118° |
| 2026-05-06 18:51 | 50.58702 | 5.77492 | 22896 ft | 456 kts | 118° |
| 2026-05-06 18:51 | 50.57197 | 5.81884 | 22894 ft | 456 kts | 118° |
| 2026-05-06 18:51 | 50.55692 | 5.86270 | 22892 ft | 456 kts | 119° |
| 2026-05-06 18:51 | 50.54184 | 5.90655 | 22897 ft | 456 kts | 119° |
| 2026-05-06 18:52 | 50.52672 | 5.95040 | 22891 ft | 456 kts | 118° |
| 2026-05-06 18:52 | 50.51166 | 5.99407 | 22894 ft | 455 kts | 119° |
| 2026-05-06 18:52 | 50.49649 | 6.03795 | 22893 ft | 456 kts | 119° |
| 2026-05-06 18:52 | 50.48139 | 6.08161 | 22895 ft | 456 kts | 120° |
| 2026-05-06 18:53 | 50.46617 | 6.12552 | 22885 ft | 459 kts | 120° |
| 2026-05-06 18:53 | 50.45108 | 6.16892 | 22884 ft | 459 kts | 120° |
| 2026-05-06 18:53 | 50.43573 | 6.21300 | 22888 ft | 460 kts | 120° |
| 2026-05-06 18:53 | 50.42041 | 6.25691 | 22559 ft | 458 kts | 120° |
| 2026-05-06 18:54 | 50.40519 | 6.30050 | 21752 ft | 456 kts | 120° |
| 2026-05-06 18:54 | 50.39006 | 6.34374 | 21296 ft | 446 kts | 120° |
| 2026-05-06 18:54 | 50.37576 | 6.38659 | 21028 ft | 445 kts | 115° |
| 2026-05-06 18:54 | 50.36528 | 6.43243 | 20768 ft | 446 kts | 108° |
| 2026-05-06 18:55 | 50.35581 | 6.47874 | 20523 ft | 446 kts | 108° |
| 2026-05-06 18:55 | 50.34663 | 6.52506 | 20270 ft | 445 kts | 108° |
| 2026-05-06 18:55 | 50.33759 | 6.57133 | 20021 ft | 444 kts | 108° |
| 2026-05-06 18:55 | 50.32858 | 6.61754 | 19768 ft | 443 kts | 108° |
| 2026-05-06 18:56 | 50.31952 | 6.66369 | 19526 ft | 442 kts | 108° |
| 2026-05-06 18:56 | 50.31060 | 6.70886 | 19276 ft | 440 kts | 108° |
| 2026-05-06 18:56 | 50.30152 | 6.75454 | 19024 ft | 439 kts | 108° |
| 2026-05-06 18:56 | 50.29243 | 6.80005 | 18814 ft | 438 kts | 108° |
| 2026-05-06 18:57 | 50.28333 | 6.84546 | 18562 ft | 436 kts | 108° |
| 2026-05-06 18:57 | 50.27424 | 6.89065 | 18317 ft | 435 kts | 108° |
| 2026-05-06 18:57 | 50.26517 | 6.93568 | 18069 ft | 434 kts | 109° |
| 2026-05-06 18:57 | 50.25608 | 6.98071 | 17798 ft | 434 kts | 109° |
| 2026-05-06 18:58 | 50.24699 | 7.02560 | 17527 ft | 432 kts | 109° |
| 2026-05-06 18:58 | 50.23792 | 7.07031 | 17246 ft | 431 kts | 109° |
| 2026-05-06 18:58 | 50.22887 | 7.11483 | 16994 ft | 429 kts | 109° |
| 2026-05-06 18:58 | 50.21983 | 7.15916 | 16737 ft | 427 kts | 109° |
| 2026-05-06 18:59 | 50.21082 | 7.20330 | 16476 ft | 426 kts | 109° |
| 2026-05-06 18:59 | 50.20181 | 7.24734 | 16217 ft | 424 kts | 109° |
| 2026-05-06 18:59 | 50.19284 | 7.29108 | 15961 ft | 423 kts | 109° |
| 2026-05-06 18:59 | 50.18389 | 7.33459 | 15695 ft | 420 kts | 108° |
| 2026-05-06 19:00 | 50.17500 | 7.37779 | 15434 ft | 417 kts | 109° |
| 2026-05-06 19:00 | 50.16616 | 7.42062 | 14974 ft | 412 kts | 109° |
| 2026-05-06 19:00 | 50.15755 | 7.46231 | 14354 ft | 407 kts | 109° |
| 2026-05-06 19:00 | 50.15169 | 7.49061 | 13913 ft | 405 kts | 109° |
| 2026-05-06 19:01 | 50.14027 | 7.54567 | 12966 ft | 400 kts | 109° |
| 2026-05-06 19:01 | 50.13173 | 7.58669 | 12312 ft | 396 kts | 109° |
| 2026-05-06 19:01 | 50.12324 | 7.62740 | 11668 ft | 392 kts | 109° |
| 2026-05-06 19:01 | 50.11418 | 7.66728 | 11094 ft | 390 kts | 115° |
| 2026-05-06 19:02 | 50.10128 | 7.70444 | 10871 ft | 391 kts | 122° |
| 2026-05-06 19:02 | 50.08679 | 7.74036 | 10828 ft | 391 kts | 124° |
| 2026-05-06 19:02 | 50.07162 | 7.77548 | 10834 ft | 390 kts | 126° |
| 2026-05-06 19:02 | 50.05617 | 7.81005 | 10833 ft | 388 kts | 127° |
| 2026-05-06 19:03 | 50.04071 | 7.84424 | 10850 ft | 380 kts | 127° |
| 2026-05-06 19:03 | 50.02595 | 7.87690 | 10855 ft | 358 kts | 127° |
| 2026-05-06 19:03 | 50.01219 | 7.90783 | 10834 ft | 334 kts | 124° |
| 2026-05-06 19:03 | 50.00323 | 7.93919 | 10861 ft | 308 kts | 105° |
| 2026-05-06 19:04 | 50.00164 | 7.97218 | 10843 ft | 306 kts | 83° |
| 2026-05-06 19:04 | 50.00576 | 8.00415 | 10835 ft | 306 kts | 75° |
| 2026-05-06 19:04 | 50.01228 | 8.03570 | 10834 ft | 307 kts | 70° |
| 2026-05-06 19:04 | 50.01998 | 8.06671 | 10834 ft | 307 kts | 68° |
| 2026-05-06 19:05 | 50.02809 | 8.09749 | 10840 ft | 307 kts | 68° |
| 2026-05-06 19:05 | 50.03621 | 8.12824 | 10837 ft | 307 kts | 68° |
| 2026-05-06 19:05 | 50.04418 | 8.15909 | 10850 ft | 307 kts | 68° |
| 2026-05-06 19:05 | 50.05197 | 8.19002 | 10844 ft | 307 kts | 69° |
| 2026-05-06 19:06 | 50.05962 | 8.22104 | 10840 ft | 306 kts | 69° |
| 2026-05-06 19:06 | 50.06704 | 8.25155 | 10567 ft | 299 kts | 70° |
| 2026-05-06 19:06 | 50.07440 | 8.28201 | 10035 ft | 303 kts | 69° |
| 2026-05-06 19:06 | 50.08184 | 8.31288 | 9557 ft | 304 kts | 70° |
| 2026-05-06 19:07 | 50.08923 | 8.34361 | 9092 ft | 303 kts | 70° |
| 2026-05-06 19:07 | 50.09413 | 8.36392 | 8794 ft | 302 kts | 70° |
| 2026-05-06 19:07 | 50.10396 | 8.40477 | 8239 ft | 299 kts | 70° |
| 2026-05-06 19:07 | 50.11116 | 8.43486 | 7906 ft | 296 kts | 70° |
| 2026-05-06 19:08 | 50.11830 | 8.46490 | 7690 ft | 297 kts | 70° |
| 2026-05-06 19:08 | 50.12543 | 8.49471 | 7267 ft | 295 kts | 70° |
| 2026-05-06 19:08 | 50.13256 | 8.52450 | 6945 ft | 291 kts | 70° |
| 2026-05-06 19:08 | 50.13961 | 8.55392 | 6811 ft | 289 kts | 70° |
| 2026-05-06 19:09 | 50.14660 | 8.58319 | 6427 ft | 287 kts | 70° |
| 2026-05-06 19:09 | 50.15356 | 8.61234 | 6001 ft | 287 kts | 70° |
| 2026-05-06 19:09 | 50.16047 | 8.64138 | 5573 ft | 284 kts | 70° |
| 2026-05-06 19:09 | 50.16734 | 8.67029 | 5149 ft | 283 kts | 70° |
| 2026-05-06 19:10 | 50.17413 | 8.69893 | 4753 ft | 281 kts | 70° |
| 2026-05-06 19:10 | 50.18088 | 8.72737 | 4338 ft | 279 kts | 69° |
| 2026-05-06 19:10 | 50.18755 | 8.75555 | 4041 ft | 275 kts | 69° |
| 2026-05-06 19:10 | 50.19419 | 8.78364 | 3983 ft | 276 kts | 69° |
| 2026-05-06 19:11 | 50.20061 | 8.81066 | 3986 ft | 261 kts | 69° |
| 2026-05-06 19:11 | 50.20666 | 8.83637 | 3995 ft | 245 kts | 69° |
| 2026-05-06 19:11 | 50.21246 | 8.86112 | 3989 ft | 243 kts | 69° |
| 2026-05-06 19:11 | 50.21829 | 8.88597 | 3984 ft | 244 kts | 69° |
| 2026-05-06 19:12 | 50.22414 | 8.91076 | 3978 ft | 243 kts | 69° |
| 2026-05-06 19:12 | 50.22995 | 8.93560 | 3982 ft | 244 kts | 69° |
| 2026-05-06 19:12 | 50.23575 | 8.96044 | 3982 ft | 244 kts | 70° |
| 2026-05-06 19:12 | 50.23960 | 8.97699 | 3976 ft | 244 kts | 69° |
| 2026-05-06 19:13 | 50.24735 | 9.01028 | 3978 ft | 243 kts | 69° |
| 2026-05-06 19:13 | 50.25115 | 9.02660 | 3980 ft | 243 kts | 69° |
| 2026-05-06 19:13 | 50.25697 | 9.05156 | 3977 ft | 244 kts | 69° |
| 2026-05-06 19:13 | 50.26278 | 9.07653 | 3979 ft | 244 kts | 69° |
| 2026-05-06 19:14 | 50.26856 | 9.10140 | 3980 ft | 244 kts | 69° |
| 2026-05-06 19:14 | 50.27381 | 9.12654 | 3974 ft | 244 kts | 78° |
| 2026-05-06 19:14 | 50.27285 | 9.15277 | 3982 ft | 243 kts | 110° |
| 2026-05-06 19:14 | 50.26376 | 9.17429 | 3974 ft | 238 kts | 142° |
| 2026-05-06 19:15 | 50.24920 | 9.18525 | 3978 ft | 232 kts | 173° |
| 2026-05-06 19:15 | 50.23350 | 9.18273 | 3980 ft | 227 kts | 205° |
| 2026-05-06 19:15 | 50.22037 | 9.16957 | 3977 ft | 225 kts | 221° |
| 2026-05-06 19:15 | 50.20848 | 9.15361 | 3976 ft | 225 kts | 223° |
| 2026-05-06 19:16 | 50.19679 | 9.13731 | 3981 ft | 226 kts | 224° |
| 2026-05-06 19:16 | 50.18507 | 9.12095 | 3979 ft | 225 kts | 224° |
| 2026-05-06 19:16 | 50.17340 | 9.10465 | 3981 ft | 225 kts | 224° |
| 2026-05-06 19:16 | 50.16188 | 9.08851 | 3981 ft | 225 kts | 223° |
| 2026-05-06 19:17 | 50.15292 | 9.06897 | 4002 ft | 223 kts | 250° |
| 2026-05-06 19:17 | 50.14845 | 9.04592 | 3982 ft | 223 kts | 255° |
| 2026-05-06 19:17 | 50.14394 | 9.02267 | 3985 ft | 224 kts | 252° |
| 2026-05-06 19:17 | 50.13881 | 8.99999 | 3982 ft | 216 kts | 250° |
| 2026-05-06 19:18 | 50.13377 | 8.97883 | 3991 ft | 199 kts | 250° |
| 2026-05-06 19:18 | 50.12914 | 8.95950 | 4012 ft | 182 kts | 250° |
| 2026-05-06 19:18 | 50.12490 | 8.94181 | 4003 ft | 169 kts | 250° |
| 2026-05-06 19:18 | 50.12079 | 8.92467 | 3994 ft | 169 kts | 250° |
| 2026-05-06 19:19 | 50.11669 | 8.90751 | 3987 ft | 170 kts | 250° |
| 2026-05-06 19:19 | 50.11256 | 8.89020 | 3992 ft | 170 kts | 250° |
| 2026-05-06 19:19 | 50.10845 | 8.87294 | 4005 ft | 169 kts | 250° |
| 2026-05-06 19:19 | 50.10436 | 8.85576 | 3991 ft | 170 kts | 251° |
| 2026-05-06 19:20 | 50.10009 | 8.83780 | 3830 ft | 181 kts | 251° |
| 2026-05-06 19:20 | 50.09573 | 8.81950 | 3590 ft | 178 kts | 250° |
| 2026-05-06 19:20 | 50.09146 | 8.80163 | 3329 ft | 175 kts | 251° |
| 2026-05-06 19:20 | 50.08725 | 8.78400 | 3090 ft | 172 kts | 251° |
| 2026-05-06 19:21 | 50.08312 | 8.76672 | 2847 ft | 169 kts | 251° |
| 2026-05-06 19:21 | 50.07908 | 8.74980 | 2620 ft | 163 kts | 252° |
| 2026-05-06 19:21 | 50.07521 | 8.73363 | 2411 ft | 156 kts | 253° |
| 2026-05-06 19:21 | 50.07151 | 8.71812 | 2193 ft | 148 kts | 253° |
| 2026-05-06 19:22 | 50.06812 | 8.70392 | 2007 ft | 136 kts | 253° |
| 2026-05-06 19:22 | 50.06496 | 8.69069 | 1824 ft | 126 kts | 253° |
| 2026-05-06 19:22 | 50.06193 | 8.67798 | 1665 ft | 125 kts | 253° |
| 2026-05-06 19:22 | 50.05888 | 8.66523 | 1481 ft | 126 kts | 253° |
| 2026-05-06 19:23 | 50.05582 | 8.65241 | 1307 ft | 126 kts | 252° |
| 2026-05-06 19:23 | 50.05275 | 8.63957 | 1116 ft | 126 kts | 252° |
| 2026-05-06 19:23 | 50.04970 | 8.62682 | 955 ft | 126 kts | 253° |
| 2026-05-06 19:23 | 50.04666 | 8.61407 | 827 ft | 125 kts | 252° |
| 2026-05-06 19:24 | 50.04348 | 8.60096 | 628 ft | 130 kts | 251° |
| 2026-05-06 19:24 | 50.04039 | 8.58804 | 447 ft | 124 kts | 252° |
| 2026-05-06 19:24 | 50.03752 | 8.57590 | 374 ft | 104 kts | 250° |
| 2026-05-06 19:24 | 50.03583 | 8.56886 | 371 ft | 58 kts | 249° |
| 2026-05-06 19:25 | 50.03457 | 8.56360 | 367 ft | 33 kts | 251° |
| 2026-05-06 19:25 | 50.03432 | 8.56144 | 369 ft | 20 kts | 272° |
| 2026-05-06 19:25 | 50.03454 | 8.55919 | 361 ft | 8 kts | 278° |
| 2026-05-06 19:25 | 50.03456 | 8.55897 | 361 ft | 5 kts | 278° |
| 2026-05-06 19:26 | 50.03465 | 8.55805 | 365 ft | 13 kts | 279° |
| 2026-05-06 19:26 | 50.03483 | 8.55633 | 359 ft | 20 kts | 278° |
| 2026-05-06 19:26 | 50.03478 | 8.55393 | 351 ft | 24 kts | 254° |
| 2026-05-06 19:26 | 50.03424 | 8.55199 | 365 ft | 20 kts | 249° |
| 2026-05-06 19:27 | 50.03381 | 8.54995 | 364 ft | 12 kts | 249° |
| 2026-05-06 19:27 | 50.03374 | 8.54969 | 365 ft | 0 kts | 247° |
| 2026-05-06 19:27 | 50.03702 | 8.56349 | 364 ft | 0 kts | 247° |
| 2026-05-06 19:28 | 50.03737 | 8.56408 | 362 ft | 0 kts | 352° |